createdAt,value
2019-05-19T00:02:26.900Z,100416.69
2019-05-19T00:04:58.215Z,100417.77
2019-05-19T00:07:29.654Z,100415.54
2019-05-19T00:10:01.287Z,100416.20
2019-05-19T00:12:32.738Z,100410.63
2019-05-19T00:15:05.415Z,100406.23
2019-05-19T00:17:38.008Z,100415.97
2019-05-19T00:20:09.562Z,100401.42
2019-05-19T00:22:41.256Z,100399.04
2019-05-19T00:25:12.668Z,100416.81
2019-05-19T00:27:46.958Z,100413.87
2019-05-19T00:30:18.418Z,100414.52
2019-05-19T00:32:49.918Z,100417.13
2019-05-19T00:35:21.242Z,100415.98
2019-05-19T00:37:52.653Z,100414.04
2019-05-19T00:40:24.114Z,100420.03
2019-05-19T00:42:55.550Z,100419.36
2019-05-19T00:45:27.143Z,100414.30
2019-05-19T00:47:58.505Z,100419.66
2019-05-19T00:50:29.952Z,100421.20
2019-05-19T00:53:01.538Z,100419.38
2019-05-19T00:55:32.953Z,100417.91
2019-05-19T00:58:05.258Z,100420.82
2019-05-19T01:00:36.661Z,100427.43
2019-05-19T01:03:07.917Z,100425.29
2019-05-19T01:05:39.171Z,100413.33
2019-05-19T01:08:10.450Z,100422.21
2019-05-19T01:10:41.978Z,100421.45
2019-05-19T01:13:13.408Z,100425.89
2019-05-19T01:15:44.779Z,100434.50
2019-05-19T01:18:16.074Z,100439.41
2019-05-19T01:20:47.783Z,100441.08
2019-05-19T01:23:19.178Z,100446.61
2019-05-19T01:25:50.409Z,100441.48
2019-05-19T01:28:21.873Z,100436.95
2019-05-19T01:30:53.330Z,100436.69
2019-05-19T01:33:24.630Z,100436.85
2019-05-19T01:35:55.869Z,100441.98
2019-05-19T01:38:27.249Z,100442.14
2019-05-19T01:40:58.587Z,100448.66
2019-05-19T01:43:30.044Z,100455.03
2019-05-19T01:46:01.288Z,100463.91
2019-05-19T01:48:32.842Z,100473.27
2019-05-19T01:51:04.168Z,100470.73
2019-05-19T01:53:35.464Z,100463.53
2019-05-19T01:56:07.130Z,100456.70
2019-05-19T01:58:38.530Z,100456.70
2019-05-19T02:01:10.192Z,100463.73
2019-05-19T02:03:41.631Z,100459.23
2019-05-19T02:06:12.963Z,100465.41
2019-05-19T02:08:44.321Z,100467.02
2019-05-19T02:11:15.772Z,100458.84
2019-05-19T02:13:47.071Z,100460.52
2019-05-19T02:16:18.531Z,100460.12
2019-05-19T02:18:50.043Z,100466.67
2019-05-19T02:21:21.257Z,100464.36
2019-05-19T02:23:53.720Z,100466.95
2019-05-19T02:26:25.857Z,100469.03
2019-05-19T02:28:57.269Z,100461.95
2019-05-19T02:31:28.511Z,100459.54
2019-05-19T02:34:00.196Z,100464.52
2019-05-19T02:36:31.597Z,100473.25
2019-05-19T02:39:03.888Z,100477.81
2019-05-19T02:41:37.463Z,100465.62
2019-05-19T02:44:09.870Z,100478.08
2019-05-19T02:46:41.629Z,100474.55
2019-05-19T02:49:13.502Z,100466.70
2019-05-19T02:51:47.137Z,100476.61
2019-05-19T02:54:20.063Z,100480.55
2019-05-19T02:56:52.174Z,100480.68
2019-05-19T02:59:24.925Z,100483.91
2019-05-19T03:02:03.848Z,100491.94
2019-05-19T03:04:35.361Z,100491.44
2019-05-19T03:07:06.753Z,100497.23
2019-05-19T03:09:38.122Z,100497.20
2019-05-19T03:12:09.435Z,100494.09
2019-05-19T03:14:40.931Z,100502.50
2019-05-19T03:17:12.373Z,100483.69
2019-05-19T03:19:43.877Z,100498.47
2019-05-19T03:22:15.262Z,100502.39
2019-05-19T03:24:46.628Z,100509.92
2019-05-19T03:27:17.880Z,100520.33
2019-05-19T03:29:51.680Z,100505.42
2019-05-19T03:32:27.536Z,100505.83
2019-05-19T03:34:59.917Z,100509.23
2019-05-19T03:37:31.355Z,100503.55
2019-05-19T03:40:04.371Z,100507.63
2019-05-19T03:42:35.589Z,100505.91
2019-05-19T03:45:07.099Z,100506.25
2019-05-19T03:47:38.276Z,100513.59
2019-05-19T03:50:09.571Z,100505.14
2019-05-19T03:52:40.949Z,100505.35
2019-05-19T03:55:12.547Z,100515.86
2019-05-19T03:57:43.769Z,100511.01
2019-05-19T04:00:15.860Z,100518.11
2019-05-19T04:02:47.747Z,100514.67
2019-05-19T04:05:19.259Z,100508.78
2019-05-19T04:07:50.521Z,100511.31
2019-05-19T04:10:22.012Z,100516.70
2019-05-19T04:12:53.420Z,100520.19
2019-05-19T04:15:24.889Z,100521.03
2019-05-19T04:17:56.168Z,100526.41
2019-05-19T04:20:28.491Z,100526.99
2019-05-19T04:22:59.830Z,100521.47
2019-05-19T04:25:31.189Z,100525.02
2019-05-19T04:28:02.628Z,100529.52
2019-05-19T04:30:34.268Z,100539.12
2019-05-19T04:33:06.220Z,100545.22
2019-05-19T04:35:37.512Z,100534.76
2019-05-19T04:38:08.747Z,100532.72
2019-05-19T04:40:40.127Z,100528.53
2019-05-19T04:43:11.459Z,100537.61
2019-05-19T04:45:42.727Z,100536.50
2019-05-19T04:48:14.065Z,100534.06
2019-05-19T04:50:45.619Z,100533.55
2019-05-19T04:53:16.833Z,100530.42
2019-05-19T04:55:48.201Z,100535.56
2019-05-19T04:58:19.474Z,100541.08
2019-05-19T05:00:50.880Z,100544.28
2019-05-19T05:03:22.339Z,100541.22
2019-05-19T05:05:53.643Z,100548.95
2019-05-19T05:08:30.223Z,100543.15
2019-05-19T05:10:58.143Z,100544.39
2019-05-19T05:13:29.513Z,100546.18
2019-05-19T05:16:00.894Z,100545.02
2019-05-19T05:18:32.364Z,100547.47
2019-05-19T05:21:03.805Z,100547.84
2019-05-19T05:23:35.362Z,100541.36
2019-05-19T05:26:06.973Z,100544.89
2019-05-19T05:28:38.389Z,100552.19
2019-05-19T05:31:09.777Z,100548.84
2019-05-19T05:33:41.173Z,100547.27
2019-05-19T05:36:12.592Z,100559.76
2019-05-19T05:38:43.919Z,100554.72
2019-05-19T05:41:15.251Z,100552.73
2019-05-19T05:43:46.507Z,100551.97
2019-05-19T05:46:17.859Z,100552.39
2019-05-19T05:48:49.398Z,100559.66
2019-05-19T05:51:20.688Z,100561.95
2019-05-19T05:53:51.940Z,100560.34
2019-05-19T05:56:23.294Z,100563.47
2019-05-19T05:58:54.623Z,100563.61
2019-05-19T06:01:25.914Z,100559.86
2019-05-19T06:03:57.231Z,100557.33
2019-05-19T06:06:28.535Z,100550.91
2019-05-19T06:08:59.845Z,100567.05
2019-05-19T06:11:31.243Z,100564.52
2019-05-19T06:14:02.778Z,100567.46
2019-05-19T06:16:34.274Z,100564.53
2019-05-19T06:19:05.593Z,100557.87
2019-05-19T06:21:36.988Z,100557.33
2019-05-19T06:24:08.339Z,100545.31
2019-05-19T06:26:39.676Z,100553.33
2019-05-19T06:29:10.996Z,100552.36
2019-05-19T06:31:42.344Z,100555.84
2019-05-19T06:34:13.793Z,100557.55
2019-05-19T06:36:45.140Z,100554.55
2019-05-19T06:39:16.407Z,100563.75
2019-05-19T06:41:47.799Z,100557.81
2019-05-19T06:44:19.056Z,100559.91
2019-05-19T06:46:52.050Z,100562.86
2019-05-19T06:49:23.423Z,100555.83
2019-05-19T06:51:54.777Z,100562.76
2019-05-19T06:54:26.156Z,100563.38
2019-05-19T06:56:57.468Z,100552.44
2019-05-19T06:59:28.711Z,100565.72
2019-05-19T07:02:00.100Z,100552.95
2019-05-19T07:04:32.896Z,100559.13
2019-05-19T07:07:04.263Z,100554.55
2019-05-19T07:09:36.789Z,100560.45
2019-05-19T07:12:08.445Z,100554.55
2019-05-19T07:14:39.732Z,100554.45
2019-05-19T07:17:11.043Z,100556.58
2019-05-19T07:19:42.403Z,100557.66
2019-05-19T07:22:13.735Z,100552.16
2019-05-19T07:24:45.177Z,100557.16
2019-05-19T07:27:16.439Z,100552.70
2019-05-19T07:29:47.747Z,100555.77
2019-05-19T07:32:19.096Z,100552.30
2019-05-19T07:34:52.209Z,100554.60
2019-05-19T07:37:23.623Z,100559.72
2019-05-19T07:39:54.833Z,100560.33
2019-05-19T07:42:27.200Z,100552.97
2019-05-19T07:44:58.539Z,100551.96
2019-05-19T07:47:29.832Z,100555.69
2019-05-19T07:50:01.434Z,100548.47
2019-05-19T07:52:33.895Z,100557.69
2019-05-19T07:55:08.100Z,100571.99
2019-05-19T07:57:39.393Z,100549.31
2019-05-19T08:00:12.203Z,100558.33
2019-05-19T08:02:43.565Z,100560.86
2019-05-19T08:05:15.243Z,100562.86
2019-05-19T08:07:46.635Z,100558.14
2019-05-19T08:10:17.954Z,100562.06
2019-05-19T08:12:49.308Z,100568.71
2019-05-19T08:15:20.547Z,100560.64
2019-05-19T08:17:51.873Z,100559.27
2019-05-19T08:20:23.188Z,100557.88
2019-05-19T08:22:54.520Z,100560.41
2019-05-19T08:25:27.301Z,100557.38
2019-05-19T08:28:07.323Z,100566.09
2019-05-19T08:30:31.876Z,100570.00
2019-05-19T08:33:03.348Z,100568.58
2019-05-19T08:35:34.693Z,100564.41
2019-05-19T08:38:06.041Z,100567.40
2019-05-19T08:40:37.312Z,100566.65
2019-05-19T08:43:08.615Z,100571.09
2019-05-19T08:45:39.952Z,100558.77
2019-05-19T08:48:11.412Z,100567.64
2019-05-19T08:50:42.651Z,100562.06
2019-05-19T08:53:14.118Z,100560.42
2019-05-19T08:55:45.429Z,100561.93
2019-05-19T08:58:16.797Z,100563.91
2019-05-19T09:00:48.099Z,100561.63
2019-05-19T09:03:19.376Z,100563.91
2019-05-19T09:05:50.688Z,100556.94
2019-05-19T09:08:21.976Z,100560.56
2019-05-19T09:10:54.695Z,100570.08
2019-05-19T09:13:25.944Z,100556.13
2019-05-19T09:15:57.231Z,100557.00
2019-05-19T09:18:28.565Z,100555.58
2019-05-19T09:20:59.843Z,100565.33
2019-05-19T09:23:31.197Z,100552.72
2019-05-19T09:26:02.414Z,100549.11
2019-05-19T09:28:33.969Z,100559.99
2019-05-19T09:31:05.419Z,100548.04
2019-05-19T09:33:36.742Z,100555.66
2019-05-19T09:36:08.243Z,100552.26
2019-05-19T09:38:39.511Z,100557.80
2019-05-19T09:41:10.875Z,100556.41
2019-05-19T09:43:42.248Z,100546.91
2019-05-19T09:46:14.055Z,100545.55
2019-05-19T09:48:46.566Z,100540.24
2019-05-19T09:51:17.883Z,100540.84
2019-05-19T09:53:49.290Z,100539.41
2019-05-19T09:56:20.665Z,100546.69
2019-05-19T09:58:52.061Z,100538.86
2019-05-19T10:01:23.355Z,100543.34
2019-05-19T10:03:54.864Z,100546.42
2019-05-19T10:06:26.019Z,100543.89
2019-05-19T10:08:59.221Z,100538.86
2019-05-19T10:11:44.347Z,100548.66
2019-05-19T10:14:19.291Z,100546.98
2019-05-19T10:16:50.540Z,100538.86
2019-05-19T10:19:21.867Z,100539.69
2019-05-19T10:21:53.372Z,100545.58
2019-05-19T10:24:24.668Z,100541.06
2019-05-19T10:26:55.983Z,100549.48
2019-05-19T10:29:27.285Z,100542.20
2019-05-19T10:31:58.515Z,100543.06
2019-05-19T10:34:30.051Z,100535.52
2019-05-19T10:37:01.589Z,100527.66
2019-05-19T10:39:32.947Z,100531.00
2019-05-19T10:42:04.350Z,100532.95
2019-05-19T10:44:35.663Z,100527.34
2019-05-19T10:47:06.971Z,100531.53
2019-05-19T10:49:38.229Z,100524.56
2019-05-19T10:52:09.445Z,100525.37
2019-05-19T10:54:40.790Z,100520.59
2019-05-19T10:57:13.049Z,100536.52
2019-05-19T10:59:44.456Z,100533.41
2019-05-19T11:02:15.763Z,100535.13
2019-05-19T11:04:47.036Z,100532.08
2019-05-19T11:07:18.320Z,100516.91
2019-05-19T11:09:49.930Z,100519.41
2019-05-19T11:12:22.414Z,100525.80
2019-05-19T11:14:53.699Z,100518.81
2019-05-19T11:17:25.198Z,100519.59
2019-05-19T11:19:56.528Z,100521.30
2019-05-19T11:22:27.880Z,100527.20
2019-05-19T11:24:59.267Z,100522.95
2019-05-19T11:27:30.590Z,100532.76
2019-05-19T11:30:01.953Z,100536.09
2019-05-19T11:32:33.374Z,100536.41
2019-05-19T11:35:06.573Z,100545.37
2019-05-19T11:37:37.797Z,100530.48
2019-05-19T11:40:09.248Z,100532.49
2019-05-19T11:42:40.561Z,100540.30
2019-05-19T11:45:12.929Z,100536.88
2019-05-19T11:47:44.218Z,100541.59
2019-05-19T11:50:15.611Z,100537.48
2019-05-19T11:52:46.923Z,100537.20
2019-05-19T11:55:18.227Z,100534.98
2019-05-19T11:57:49.487Z,100532.95
2019-05-19T12:00:22.259Z,100533.22
2019-05-19T12:02:53.563Z,100538.30
2019-05-19T12:05:25.071Z,100534.91
2019-05-19T12:07:56.497Z,100541.34
2019-05-19T12:10:27.835Z,100540.44
2019-05-19T12:12:59.444Z,100537.55
2019-05-19T12:15:30.894Z,100542.31
2019-05-19T12:18:02.377Z,100532.81
2019-05-19T12:20:33.706Z,100526.91
2019-05-19T12:23:05.315Z,100534.91
2019-05-19T12:25:36.790Z,100534.09
2019-05-19T12:28:08.054Z,100539.01
2019-05-19T12:30:39.395Z,100542.16
2019-05-19T12:33:10.687Z,100541.89
2019-05-19T12:35:41.996Z,100537.28
2019-05-19T12:38:13.301Z,100539.45
2019-05-19T12:40:44.602Z,100537.16
2019-05-19T12:43:16.032Z,100539.70
2019-05-19T12:45:47.606Z,100541.73
2019-05-19T12:48:19.110Z,100535.85
2019-05-19T12:50:50.461Z,100538.07
2019-05-19T12:53:21.852Z,100531.64
2019-05-19T12:55:53.258Z,100536.11
2019-05-19T12:58:24.609Z,100540.84
2019-05-19T13:00:55.957Z,100527.70
2019-05-19T13:03:27.195Z,100533.80
2019-05-19T13:05:58.537Z,100531.62
2019-05-19T13:08:30.019Z,100524.83
2019-05-19T13:11:02.394Z,100530.15
2019-05-19T13:13:33.674Z,100525.90
2019-05-19T13:16:05.508Z,100534.32
2019-05-19T13:18:36.899Z,100530.44
2019-05-19T13:21:08.322Z,100533.83
2019-05-19T13:23:39.552Z,100534.09
2019-05-19T13:26:11.035Z,100534.91
2019-05-19T13:28:42.306Z,100531.00
2019-05-19T13:31:13.613Z,100530.73
2019-05-19T13:33:45.016Z,100534.61
2019-05-19T13:36:16.410Z,100536.91
2019-05-19T13:38:47.662Z,100541.73
2019-05-19T13:41:18.988Z,100530.77
2019-05-19T13:43:50.307Z,100537.45
2019-05-19T13:46:21.702Z,100530.70
2019-05-19T13:48:52.947Z,100532.69
2019-05-19T13:51:24.274Z,100533.83
2019-05-19T13:53:56.075Z,100535.23
2019-05-19T13:56:27.319Z,100534.42
2019-05-19T13:58:58.618Z,100538.63
2019-05-19T14:01:29.941Z,100538.01
2019-05-19T14:04:01.244Z,100538.83
2019-05-19T14:06:32.697Z,100537.72
2019-05-19T14:09:05.121Z,100546.72
2019-05-19T14:11:36.584Z,100544.44
2019-05-19T14:14:07.830Z,100543.62
2019-05-19T14:16:39.220Z,100552.04
2019-05-19T14:19:10.589Z,100548.38
2019-05-19T14:21:41.845Z,100554.26
2019-05-19T14:24:13.063Z,100545.55
2019-05-19T14:26:44.392Z,100542.80
2019-05-19T14:29:15.624Z,100543.06
2019-05-19T14:31:46.903Z,100545.61
2019-05-19T14:34:18.186Z,100548.67
2019-05-19T14:36:49.599Z,100542.48
2019-05-19T14:39:20.952Z,100544.17
2019-05-19T14:41:54.010Z,100547.27
2019-05-19T14:44:25.326Z,100549.78
2019-05-19T14:46:56.606Z,100549.23
2019-05-19T14:49:29.503Z,100545.55
2019-05-19T14:52:00.929Z,100548.35
2019-05-19T14:54:32.249Z,100548.94
2019-05-19T14:57:03.524Z,100546.72
2019-05-19T14:59:34.927Z,100544.17
2019-05-19T15:02:06.344Z,100549.30
2019-05-19T15:04:37.692Z,100547.05
2019-05-19T15:07:09.010Z,100541.73
2019-05-19T15:09:40.234Z,100554.11
2019-05-19T15:12:11.540Z,100549.09
2019-05-19T15:14:42.801Z,100539.06
2019-05-19T15:17:14.092Z,100543.00
2019-05-19T15:19:46.394Z,100541.36
2019-05-19T15:22:17.671Z,100542.45
2019-05-19T15:24:49.159Z,100540.17
2019-05-19T15:27:20.371Z,100536.27
2019-05-19T15:29:51.607Z,100533.16
2019-05-19T15:32:22.865Z,100534.30
2019-05-19T15:34:54.162Z,100540.73
2019-05-19T15:37:25.518Z,100544.97
2019-05-19T15:39:57.655Z,100545.84
2019-05-19T15:42:28.976Z,100552.84
2019-05-19T15:45:00.273Z,100547.59
2019-05-19T15:47:31.553Z,100560.77
2019-05-19T15:50:02.851Z,100549.31
2019-05-19T15:52:34.184Z,100552.14
2019-05-19T15:55:06.798Z,100558.05
2019-05-19T15:57:38.269Z,100556.95
2019-05-19T16:00:10.129Z,100560.31
2019-05-19T16:02:41.505Z,100561.42
2019-05-19T16:05:13.128Z,100563.41
2019-05-19T16:07:44.458Z,100559.22
2019-05-19T16:10:17.328Z,100557.52
2019-05-19T16:12:48.660Z,100563.16
2019-05-19T16:15:20.129Z,100569.62
2019-05-19T16:17:51.594Z,100563.47
2019-05-19T16:20:22.907Z,100565.98
2019-05-19T16:22:54.164Z,100563.48
2019-05-19T16:25:25.411Z,100566.30
2019-05-19T16:27:56.731Z,100569.64
2019-05-19T16:30:28.166Z,100575.50
2019-05-19T16:32:59.550Z,100575.52
2019-05-19T16:35:31.037Z,100578.32
2019-05-19T16:38:02.429Z,100582.50
2019-05-19T16:40:33.810Z,100590.64
2019-05-19T16:43:05.267Z,100588.11
2019-05-19T16:45:36.701Z,100591.73
2019-05-19T16:48:08.237Z,100587.26
2019-05-19T16:50:40.821Z,100585.30
2019-05-19T16:53:12.408Z,100589.48
2019-05-19T16:55:44.173Z,100591.44
2019-05-19T16:58:21.097Z,100589.48
2019-05-19T17:00:49.401Z,100588.62
2019-05-19T17:03:20.873Z,100589.14
2019-05-19T17:05:52.309Z,100594.18
2019-05-19T17:08:23.599Z,100588.56
2019-05-19T17:10:55.236Z,100590.52
2019-05-19T17:13:26.606Z,100593.30
2019-05-19T17:15:57.926Z,100596.63
2019-05-19T17:18:29.309Z,100591.02
2019-05-19T17:21:00.724Z,100598.79
2019-05-19T17:23:32.142Z,100598.52
2019-05-19T17:26:03.555Z,100600.19
2019-05-19T17:28:35.006Z,100603.20
2019-05-19T17:31:07.767Z,100600.32
2019-05-19T17:33:40.495Z,100598.65
2019-05-19T17:36:12.609Z,100602.53
2019-05-19T17:38:44.006Z,100608.05
2019-05-19T17:41:15.538Z,100610.27
2019-05-19T17:43:47.904Z,100603.22
2019-05-19T17:46:19.151Z,100606.59
2019-05-19T17:48:50.889Z,100610.70
2019-05-19T17:51:22.330Z,100615.12
2019-05-19T17:53:55.262Z,100620.38
2019-05-19T17:56:27.467Z,100614.17
2019-05-19T17:58:59.505Z,100617.74
2019-05-19T18:01:30.918Z,100623.27
2019-05-19T18:04:02.387Z,100624.63
2019-05-19T18:06:33.822Z,100627.35
2019-05-19T18:09:05.914Z,100629.83
2019-05-19T18:11:38.461Z,100628.75
2019-05-19T18:14:10.799Z,100630.09
2019-05-19T18:16:42.161Z,100633.31
2019-05-19T18:19:13.575Z,100633.52
2019-05-19T18:21:45.036Z,100632.32
2019-05-19T18:24:16.388Z,100642.49
2019-05-19T18:26:47.614Z,100638.69
2019-05-19T18:29:30.489Z,100643.65
2019-05-19T18:31:52.204Z,100637.50
2019-05-19T18:34:23.784Z,100642.14
2019-05-19T18:36:55.153Z,100646.09
2019-05-19T18:39:26.629Z,100643.50
2019-05-19T18:41:59.577Z,100648.16
2019-05-19T18:44:31.289Z,100649.41
2019-05-19T18:47:02.636Z,100649.04
2019-05-19T18:49:34.032Z,100648.30
2019-05-19T18:52:05.460Z,100650.80
2019-05-19T18:54:36.973Z,100658.47
2019-05-19T18:57:08.399Z,100657.59
2019-05-19T18:59:47.323Z,100656.52
2019-05-19T19:02:14.806Z,100656.38
2019-05-19T19:04:46.221Z,100663.58
2019-05-19T19:07:17.543Z,100660.37
2019-05-19T19:09:48.976Z,100658.22
2019-05-19T19:12:21.942Z,100660.29
2019-05-19T19:14:53.327Z,100662.89
2019-05-19T19:17:24.580Z,100668.84
2019-05-19T19:19:55.957Z,100669.83
2019-05-19T19:22:28.753Z,100677.54
2019-05-19T19:25:00.255Z,100672.73
2019-05-19T19:27:31.847Z,100681.34
2019-05-19T19:30:04.206Z,100681.83
2019-05-19T19:32:35.785Z,100693.53
2019-05-19T19:35:08.660Z,100689.22
2019-05-19T19:37:39.940Z,100692.25
2019-05-19T19:40:13.099Z,100688.84
2019-05-19T19:42:44.523Z,100697.39
2019-05-19T19:45:15.862Z,100695.28
2019-05-19T19:47:47.107Z,100692.33
2019-05-19T19:50:18.433Z,100695.16
2019-05-19T19:52:49.837Z,100687.17
2019-05-19T19:55:21.121Z,100684.36
2019-05-19T19:57:52.402Z,100694.70
2019-05-19T20:00:38.239Z,100692.83
2019-05-19T20:03:09.654Z,100694.70
2019-05-19T20:05:45.144Z,100695.89
2019-05-19T20:08:17.534Z,100690.20
2019-05-19T20:10:48.987Z,100697.31
2019-05-19T20:13:20.377Z,100702.34
2019-05-19T20:15:51.771Z,100698.34
2019-05-19T20:18:23.055Z,100706.20
2019-05-19T20:20:54.441Z,100705.70
2019-05-19T20:23:25.931Z,100700.36
2019-05-19T20:25:57.190Z,100697.72
2019-05-19T20:28:28.562Z,100704.28
2019-05-19T20:30:59.875Z,100710.19
2019-05-19T20:33:31.356Z,100710.63
2019-05-19T20:36:03.717Z,100702.43
2019-05-19T20:38:35.204Z,100707.39
2019-05-19T20:41:06.772Z,100706.81
2019-05-19T20:43:38.094Z,100702.04
2019-05-19T20:46:09.503Z,100707.89
2019-05-19T20:48:40.930Z,100711.70
2019-05-19T20:51:12.324Z,100716.19
2019-05-19T20:53:43.646Z,100718.83
2019-05-19T20:56:15.018Z,100725.59
2019-05-19T20:58:46.442Z,100730.03
2019-05-19T21:01:17.899Z,100732.48
2019-05-19T21:03:49.329Z,100737.80
2019-05-19T21:06:20.794Z,100739.12
2019-05-19T21:08:52.063Z,100738.91
2019-05-19T21:11:23.388Z,100742.75
2019-05-19T21:13:54.636Z,100744.99
2019-05-19T21:16:25.950Z,100748.50
2019-05-19T21:19:10.814Z,100756.76
2019-05-19T21:21:42.138Z,100758.48
2019-05-19T21:24:13.449Z,100758.73
2019-05-19T21:26:44.819Z,100762.19
2019-05-19T21:29:17.210Z,100753.17
2019-05-19T21:31:48.491Z,100759.99
2019-05-19T21:34:19.781Z,100759.99
2019-05-19T21:36:51.080Z,100761.34
2019-05-19T21:39:22.458Z,100763.67
2019-05-19T21:41:53.710Z,100759.05
2019-05-19T21:44:25.122Z,100759.78
2019-05-19T21:46:56.491Z,100763.45
2019-05-19T21:49:27.636Z,100765.57
2019-05-19T21:51:58.944Z,100773.82
2019-05-19T21:54:30.271Z,100777.33
2019-05-19T21:57:01.740Z,100779.24
2019-05-19T21:59:33.020Z,100783.16
2019-05-19T22:02:05.591Z,100784.66
2019-05-19T22:04:36.990Z,100778.70
2019-05-19T22:07:12.952Z,100780.38
2019-05-19T22:09:44.151Z,100783.77
2019-05-19T22:12:15.432Z,100782.13
2019-05-19T22:14:46.761Z,100789.74
2019-05-19T22:17:18.186Z,100793.83
2019-05-19T22:19:49.411Z,100791.40
2019-05-19T22:22:20.785Z,100782.17
2019-05-19T22:24:52.096Z,100787.82
2019-05-19T22:27:23.385Z,100782.70
2019-05-19T22:29:54.721Z,100788.11
2019-05-19T22:32:26.171Z,100794.38
2019-05-19T22:34:57.645Z,100788.20
2019-05-19T22:37:29.176Z,100788.89
2019-05-19T22:40:00.595Z,100798.31
2019-05-19T22:42:31.961Z,100797.60
2019-05-19T22:45:04.036Z,100799.22
2019-05-19T22:47:35.405Z,100808.69
2019-05-19T22:50:08.350Z,100807.30
2019-05-19T22:52:39.645Z,100809.26
2019-05-19T22:55:10.840Z,100802.89
2019-05-19T22:57:42.149Z,100813.13
2019-05-19T23:00:14.920Z,100814.04
2019-05-19T23:02:48.176Z,100815.07
2019-05-19T23:05:19.500Z,100810.59
2019-05-19T23:07:50.818Z,100811.38
2019-05-19T23:10:22.329Z,100808.29
2019-05-19T23:12:53.626Z,100810.53
2019-05-19T23:15:25.077Z,100811.15
2019-05-19T23:17:56.406Z,100815.48
2019-05-19T23:20:27.628Z,100813.94
2019-05-19T23:22:58.895Z,100817.19
2019-05-19T23:25:30.283Z,100819.95
2019-05-19T23:28:01.640Z,100818.80
2019-05-19T23:30:32.923Z,100826.55
2019-05-19T23:33:04.441Z,100820.66
2019-05-19T23:35:35.711Z,100822.36
2019-05-19T23:38:07.063Z,100830.34
2019-05-19T23:40:38.294Z,100828.42
2019-05-19T23:43:09.795Z,100830.88
2019-05-19T23:45:40.991Z,100837.64
2019-05-19T23:48:12.348Z,100824.10
2019-05-19T23:50:44.551Z,100832.41
2019-05-19T23:53:15.839Z,100825.48
2019-05-19T23:55:47.117Z,100826.38
2019-05-19T23:58:18.423Z,100824.07
